Time;durP1;ratioP1;P1;durP2;ratioP2;P2;SDS_P1;SDS_P2;PMS_P1;PMS_P2;Temp;Humidity;BMP_temperature;BMP_pressure;BME280_temperature;BME280_humidity;BME280_pressure;Samples;Min_cycle;Max_cycle;Signal;HPM_P1;HPM_P2
2022/03/05 00:02:17;;;;;;;;;;;;;;;22.06;22.30;97768.81;5053451;28;1033;-73
2022/03/05 00:04:44;;;;;;;;;;;;;;;22.41;22.03;97777.44;5053260;28;1022;-73
2022/03/05 00:07:11;;;;;;;;;;;;;;;22.62;21.85;97764.59;5053421;28;974;-73
2022/03/05 00:09:36;;;;;;;;;;;;;;;22.43;22.04;97763.59;5036315;28;1316;-73
2022/03/05 00:12:02;;;;;;;;;;;;;;;22.11;22.27;97770.31;5053331;28;865;-73
2022/03/05 00:14:28;;;;;;;;;;;;;;;22.05;22.42;97766.44;5036492;28;1997;-73
2022/03/05 00:16:53;;;;;;;;;;;;;;;22.43;22.03;97763.59;5053288;28;960;-73
2022/03/05 00:19:19;;;;;;;;;;;;;;;22.63;21.54;97760.50;5053420;28;1176;-73
2022/03/05 00:21:46;;;;;;;;;;;;;;;22.35;21.99;97754.56;5053061;28;1080;-73
2022/03/05 00:24:11;;;;;;;;;;;;;;;22.03;22.40;97758.41;5052943;28;1017;-73
2022/03/05 00:26:37;;;;;;;;;;;;;;;21.84;22.71;97767.91;5053228;28;1038;-73
2022/03/05 00:29:03;;;;;;;;;;;;;;;22.72;21.38;97760.59;5053279;28;989;-73
2022/03/05 00:31:29;;;;;;;;;;;;;;;22.48;21.52;97759.38;5085754;28;1288;-73
2022/03/05 00:33:54;;;;;;;;;;;;;;;22.30;21.94;97760.78;5095737;28;1898;-73
2022/03/05 00:36:20;;;;;;;;;;;;;;;22.20;22.29;97761.16;5095793;28;1001;-73
2022/03/05 00:38:46;;;;;;;;;;;;;;;22.42;21.84;97755.56;5095905;28;893;-73
2022/03/05 00:41:11;;;;;;;;;;;;;;;22.29;22.21;97761.25;5096223;28;970;-73
2022/03/05 00:43:37;;;;;;;;;;;;;;;22.47;21.91;97763.47;5095797;28;865;-73
2022/03/05 00:46:02;;;;;;;;;;;;;;;22.55;21.93;97759.16;5095161;28;907;-73
2022/03/05 00:48:27;;;;;;;;;;;;;;;23.01;21.37;97765.28;5059850;28;1058;-73
2022/03/05 00:50:54;;;;;;;;;;;;;;;22.75;21.40;97756.06;5095622;28;1111;-73
2022/03/05 00:53:21;;;;;;;;;;;;;;;22.51;21.81;97749.97;5095793;28;1972;-74
2022/03/05 00:55:47;;;;;;;;;;;;;;;22.36;22.08;97747.63;5098964;28;998;-73
2022/03/05 00:58:13;;;;;;;;;;;;;;;22.39;22.29;97748.78;5099635;28;1038;-73
2022/03/05 01:00:39;;;;;;;;;;;;;;;22.23;22.44;97741.19;5099410;28;977;-73
2022/03/05 01:03:04;;;;;;;;;;;;;;;22.82;21.45;97750.91;5099703;28;967;-73
2022/03/05 01:05:30;;;;;;;;;;;;;;;22.94;21.48;97757.00;5099092;28;1056;-74
2022/03/05 01:07:55;;;;;;;;;;;;;;;22.49;21.99;97761.00;5099148;28;916;-73
2022/03/05 01:10:21;;;;;;;;;;;;;;;22.92;21.51;97751.03;5099067;28;958;-73
2022/03/05 01:12:46;;;;;;;;;;;;;;;22.84;21.71;97748.38;5056350;28;1977;-73
2022/03/05 01:15:11;;;;;;;;;;;;;;;22.34;22.30;97743.69;5056652;28;1052;-73
2022/03/05 01:17:37;;;;;;;;;;;;;;;23.04;21.22;97747.31;5056415;28;962;-73
2022/03/05 01:20:02;;;;;;;;;;;;;;;22.71;21.91;97738.38;5056541;28;947;-73
2022/03/05 01:22:28;;;;;;;;;;;;;;;23.26;21.04;97745.31;5056391;28;1022;-73
2022/03/05 01:24:53;;;;;;;;;;;;;;;22.90;21.52;97747.84;5056226;28;1016;-73
2022/03/05 01:27:21;;;;;;;;;;;;;;;23.18;21.16;97746.81;5056152;28;1012;-73
2022/03/05 01:29:46;;;;;;;;;;;;;;;22.69;21.59;97741.66;5016511;28;1137;-73
2022/03/05 01:32:12;;;;;;;;;;;;;;;22.84;21.66;97741.94;5000167;28;1188;-73
2022/03/05 01:34:37;;;;;;;;;;;;;;;22.48;21.91;97745.22;5016421;28;1983;-73
2022/03/05 01:37:03;;;;;;;;;;;;;;;22.66;21.92;97741.78;5016257;28;1013;-73
2022/03/05 01:39:28;;;;;;;;;;;;;;;22.34;22.26;97738.78;5016833;28;1048;-73
2022/03/05 01:41:55;;;;;;;;;;;;;;;22.47;22.34;97740.81;5016395;28;1134;-73
2022/03/05 01:44:21;;;;;;;;;;;;;;;22.70;21.77;97731.91;5014842;28;943;-73
2022/03/05 01:46:46;;;;;;;;;;;;;;;22.87;21.51;97729.66;5019669;28;1113;-73
2022/03/05 01:49:12;;;;;;;;;;;;;;;22.61;21.81;97737.47;5035853;28;1030;-73
2022/03/05 01:51:37;;;;;;;;;;;;;;;22.99;21.31;97740.19;5035634;28;1017;-73
2022/03/05 01:54:03;;;;;;;;;;;;;;;23.09;20.93;97736.16;5035983;28;1977;-73
2022/03/05 01:56:28;;;;;;;;;;;;;;;23.04;21.32;97735.97;5019514;28;985;-73
2022/03/05 01:58:54;;;;;;;;;;;;;;;23.00;21.31;97738.16;5036003;28;927;-73
2022/03/05 02:01:20;;;;;;;;;;;;;;;23.04;21.45;97733.94;5035772;28;937;-73
2022/03/05 02:03:45;;;;;;;;;;;;;;;22.43;22.19;97740.13;5018879;28;1010;-73
2022/03/05 02:06:11;;;;;;;;;;;;;;;22.69;21.98;97741.66;5040171;28;1032;-73
2022/03/05 02:08:37;;;;;;;;;;;;;;;22.96;21.73;97743.97;5098177;28;977;-73
2022/03/05 02:11:02;;;;;;;;;;;;;;;22.90;21.63;97739.31;5098369;28;924;-73
2022/03/05 02:13:28;;;;;;;;;;;;;;;22.86;21.68;97745.91;5098347;28;1977;-73
2022/03/05 02:15:56;;;;;;;;;;;;;;;23.12;20.99;97740.16;5080159;28;1040;-73
2022/03/05 02:18:23;;;;;;;;;;;;;;;22.84;21.70;97739.88;5035201;28;1032;-73
2022/03/05 02:20:51;;;;;;;;;;;;;;;22.55;22.06;97748.63;5035721;28;923;-73
2022/03/05 02:23:17;;;;;;;;;;;;;;;22.61;21.83;97751.66;5035384;28;978;-73
2022/03/05 02:25:55;;;;;;;;;;;;;;;22.75;21.80;97739.81;5035315;28;986;-73
2022/03/05 02:28:21;;;;;;;;;;;;;;;22.63;21.92;97747.09;5035288;28;1016;-73
2022/03/05 02:30:47;;;;;;;;;;;;;;;22.75;21.79;97750.38;5035591;28;1226;-73
2022/03/05 02:33:12;;;;;;;;;;;;;;;22.32;22.38;97751.81;5034688;28;1922;-73
2022/03/05 02:35:37;;;;;;;;;;;;;;;22.24;22.28;97744.81;5035356;28;944;-73
2022/03/05 02:38:03;;;;;;;;;;;;;;;22.16;22.60;97755.59;5035345;28;997;-73
2022/03/05 02:40:28;;;;;;;;;;;;;;;21.94;22.76;97749.00;5035057;28;1193;-73
2022/03/05 02:42:54;;;;;;;;;;;;;;;22.00;22.67;97733.03;5035151;28;966;-73
2022/03/05 02:45:19;;;;;;;;;;;;;;;22.22;22.33;97742.44;5034898;28;993;-73
2022/03/05 02:47:45;;;;;;;;;;;;;;;22.64;22.06;97739.41;5035284;28;985;-73
2022/03/05 02:50:10;;;;;;;;;;;;;;;22.65;21.64;97746.66;5086738;28;981;-73
2022/03/05 02:52:38;;;;;;;;;;;;;;;21.95;22.44;97733.59;5097238;28;1910;-73
2022/03/05 02:55:04;;;;;;;;;;;;;;;21.73;22.97;97750.47;5097684;28;962;-73
2022/03/05 02:57:29;;;;;;;;;;;;;;;22.33;22.15;97748.56;5097558;28;957;-73
2022/03/05 02:59:55;;;;;;;;;;;;;;;22.69;21.90;97753.00;5097236;28;961;-73
2022/03/05 03:02:20;;;;;;;;;;;;;;;22.60;21.91;97750.09;5096803;28;957;-73
2022/03/05 03:04:46;;;;;;;;;;;;;;;21.93;22.62;97753.09;5097376;28;1023;-73
2022/03/05 03:07:11;;;;;;;;;;;;;;;21.78;22.83;97764.88;5097180;28;1077;-73
2022/03/05 03:09:37;;;;;;;;;;;;;;;22.18;22.55;97758.78;5061258;28;960;-73
2022/03/05 03:12:02;;;;;;;;;;;;;;;22.96;21.26;97757.38;5096857;28;930;-73
2022/03/05 03:14:28;;;;;;;;;;;;;;;22.25;22.08;97772.69;5061133;28;1909;-73
2022/03/05 03:16:53;;;;;;;;;;;;;;;21.68;22.77;97768.81;5096104;28;1124;-73
2022/03/05 03:19:18;;;;;;;;;;;;;;;21.80;22.84;97761.56;5096844;28;907;-73
2022/03/05 03:21:44;;;;;;;;;;;;;;;22.67;21.86;97755.50;5097008;28;945;-73
2022/03/05 03:24:09;;;;;;;;;;;;;;;22.54;21.81;97763.25;5096845;28;1159;-73
2022/03/05 03:26:35;;;;;;;;;;;;;;;22.45;21.92;97760.31;5096973;28;947;-73
2022/03/05 03:29:00;;;;;;;;;;;;;;;22.58;21.88;97764.69;5096382;28;982;-73
2022/03/05 03:31:26;;;;;;;;;;;;;;;22.96;21.22;97765.88;5060404;28;1015;-73
2022/03/05 03:33:52;;;;;;;;;;;;;;;22.79;21.79;97780.19;5096796;28;1913;-73
2022/03/05 03:36:17;;;;;;;;;;;;;;;22.74;21.70;97777.94;5096530;28;1122;-73
2022/03/05 03:38:43;;;;;;;;;;;;;;;22.18;22.61;97770.13;5096789;28;949;-73
2022/03/05 03:41:08;;;;;;;;;;;;;;;22.39;22.19;97765.78;5096623;28;897;-73
2022/03/05 03:43:34;;;;;;;;;;;;;;;22.41;22.31;97777.44;5096510;28;994;-73
2022/03/05 03:46:00;;;;;;;;;;;;;;;22.39;22.04;97784.84;5096593;28;909;-74
2022/03/05 03:48:25;;;;;;;;;;;;;;;22.82;21.59;97784.94;5096778;28;958;-73
2022/03/05 03:50:52;;;;;;;;;;;;;;;22.79;21.95;97785.84;5096517;28;988;-73
2022/03/05 03:53:17;;;;;;;;;;;;;;;23.00;21.66;97780.72;5096042;28;1906;-73
2022/03/05 03:55:44;;;;;;;;;;;;;;;22.57;22.07;97790.69;5095692;28;906;-74
2022/03/05 03:58:09;;;;;;;;;;;;;;;22.97;21.37;97790.16;5096169;28;1142;-73
2022/03/05 04:00:34;;;;;;;;;;;;;;;23.39;20.91;97793.47;5096003;28;929;-73
2022/03/05 04:03:00;;;;;;;;;;;;;;;23.28;21.29;97793.09;5096095;28;1044;-73
2022/03/05 04:05:25;;;;;;;;;;;;;;;23.09;21.55;97792.13;5078185;28;992;-73
2022/03/05 04:10:35;;;;;;;;;;;;;;;22.75;21.84;97801.44;5095744;28;1032;-73
2022/03/05 04:13:00;;;;;;;;;;;;;;;22.96;21.46;97808.44;5095758;28;1898;-73
2022/03/05 04:15:26;;;;;;;;;;;;;;;22.02;22.69;97812.69;5096157;28;1057;-74
2022/03/05 04:17:52;;;;;;;;;;;;;;;22.22;22.78;97816.13;5095587;28;996;-73
2022/03/05 04:20:17;;;;;;;;;;;;;;;22.41;22.43;97810.66;5095863;28;931;-73
2022/03/05 04:22:42;;;;;;;;;;;;;;;22.56;21.94;97811.78;5043304;28;1029;-73
2022/03/05 04:25:08;;;;;;;;;;;;;;;22.27;22.65;97815.53;5095787;28;964;-73
2022/03/05 04:27:34;;;;;;;;;;;;;;;21.77;23.28;97814.25;5053012;28;956;-73
2022/03/05 04:30:00;;;;;;;;;;;;;;;22.25;22.63;97828.59;5056963;28;1035;-73
2022/03/05 04:32:26;;;;;;;;;;;;;;;22.39;22.56;97816.00;5056919;28;1250;-73
2022/03/05 04:34:51;;;;;;;;;;;;;;;22.09;22.72;97818.13;5057203;28;1914;-73
2022/03/05 04:37:17;;;;;;;;;;;;;;;21.80;22.93;97824.66;5057273;28;936;-73
2022/03/05 04:39:42;;;;;;;;;;;;;;;22.09;23.02;97829.47;5057268;28;981;-73
2022/03/05 04:42:08;;;;;;;;;;;;;;;22.54;22.29;97826.44;5057142;28;1059;-73
2022/03/05 04:44:33;;;;;;;;;;;;;;;22.43;22.21;97825.97;5057114;28;953;-73
2022/03/05 04:46:59;;;;;;;;;;;;;;;22.08;22.61;97839.22;5057265;28;1012;-73
2022/03/05 04:49:24;;;;;;;;;;;;;;;22.12;22.53;97842.75;5057052;28;963;-73
2022/03/05 04:51:50;;;;;;;;;;;;;;;22.60;21.92;97844.44;5057102;28;1102;-73
2022/03/05 04:54:15;;;;;;;;;;;;;;;22.61;22.01;97843.19;5056687;28;1906;-73
2022/03/05 04:56:41;;;;;;;;;;;;;;;22.05;22.73;97840.91;5056920;28;955;-73
2022/03/05 04:59:06;;;;;;;;;;;;;;;22.11;22.51;97849.66;5087875;28;933;-74
2022/03/05 05:01:31;;;;;;;;;;;;;;;21.92;22.98;97847.81;5099449;28;1024;-73
2022/03/05 05:03:58;;;;;;;;;;;;;;;22.58;22.07;97848.97;5099775;28;847;-73
2022/03/05 05:06:24;;;;;;;;;;;;;;;22.63;22.00;97848.41;5099132;28;981;-73
2022/03/05 05:08:50;;;;;;;;;;;;;;;22.34;22.18;97862.72;5099532;28;874;-73
2022/03/05 05:11:15;;;;;;;;;;;;;;;22.02;22.77;97852.34;5099910;28;738;-73
2022/03/05 05:13:41;;;;;;;;;;;;;;;22.23;22.63;97863.06;5098893;28;1914;-73
2022/03/05 05:16:06;;;;;;;;;;;;;;;22.92;21.85;97850.31;5099209;28;911;-73
2022/03/05 05:18:33;;;;;;;;;;;;;;;22.63;21.99;97851.25;5099072;28;951;-73
2022/03/05 05:20:58;;;;;;;;;;;;;;;22.34;22.12;97857.06;5099219;28;939;-73
2022/03/05 05:23:24;;;;;;;;;;;;;;;22.84;21.80;97856.19;5098814;28;1183;-74
2022/03/05 05:25:49;;;;;;;;;;;;;;;22.44;22.16;97864.44;5098998;28;967;-73
2022/03/05 05:28:15;;;;;;;;;;;;;;;22.15;22.43;97866.56;5063438;28;1041;-73
2022/03/05 05:30:41;;;;;;;;;;;;;;;22.65;22.16;97870.66;5099001;28;842;-73
2022/03/05 05:33:06;;;;;;;;;;;;;;;22.47;22.01;97869.19;5080710;28;1957;-73
2022/03/05 05:35:31;;;;;;;;;;;;;;;22.12;22.86;97873.13;5019432;28;999;-73
2022/03/05 05:37:57;;;;;;;;;;;;;;;22.06;22.76;97875.69;5036220;28;1016;-73
2022/03/05 05:40:22;;;;;;;;;;;;;;;22.38;22.27;97874.72;5035039;28;1334;-73
2022/03/05 05:42:48;;;;;;;;;;;;;;;22.21;22.60;97876.88;5036167;28;963;-73
2022/03/05 05:45:13;;;;;;;;;;;;;;;22.62;22.29;97889.34;5036057;28;1082;-73
2022/03/05 05:47:39;;;;;;;;;;;;;;;22.54;21.94;97888.03;5036168;28;961;-73
2022/03/05 05:50:05;;;;;;;;;;;;;;;22.24;22.51;97887.31;5035760;28;1060;-73
2022/03/05 05:52:30;;;;;;;;;;;;;;;22.54;22.36;97888.03;5035936;28;1153;-73
2022/03/05 05:54:56;;;;;;;;;;;;;;;21.92;22.82;97881.81;5035893;28;1914;-73
2022/03/05 05:57:21;;;;;;;;;;;;;;;22.04;22.94;97892.38;5035555;28;1055;-73
2022/03/05 05:59:46;;;;;;;;;;;;;;;22.36;22.56;97891.41;5035961;28;1052;-72
2022/03/05 06:02:12;;;;;;;;;;;;;;;22.49;22.31;97902.75;5035948;28;1093;-72
2022/03/05 06:04:38;;;;;;;;;;;;;;;22.58;22.33;97894.34;5035795;28;1003;-72
2022/03/05 06:07:03;;;;;;;;;;;;;;;22.41;22.56;97901.38;5081090;28;927;-71
2022/03/05 06:09:29;;;;;;;;;;;;;;;22.55;22.37;97913.06;5098212;28;913;-72
2022/03/05 06:11:54;;;;;;;;;;;;;;;22.15;22.73;97909.88;5098144;28;924;-71
2022/03/05 06:14:20;;;;;;;;;;;;;;;22.72;22.08;97916.59;5062414;28;1984;-72
2022/03/05 06:16:46;;;;;;;;;;;;;;;22.62;22.10;97912.06;5062371;28;1181;-72
2022/03/05 06:19:11;;;;;;;;;;;;;;;22.34;22.50;97920.22;5098092;28;924;-71
2022/03/05 06:21:37;;;;;;;;;;;;;;;22.14;22.80;97916.00;5098175;28;985;-72
2022/03/05 06:24:02;;;;;;;;;;;;;;;22.54;22.33;97916.38;5097921;28;918;-71
2022/03/05 06:26:34;;;;;;;;;;;;;;;22.41;22.20;97921.22;5097803;28;970;-72
2022/03/05 06:28:59;;;;;;;;;;;;;;;22.38;22.21;97916.47;5098004;28;956;-72
2022/03/05 06:31:25;;;;;;;;;;;;;;;22.70;21.90;97923.97;5097745;28;1120;-71
2022/03/05 06:33:51;;;;;;;;;;;;;;;22.40;22.57;97926.13;5097671;28;1960;-72
2022/03/05 06:36:16;;;;;;;;;;;;;;;22.17;22.92;97927.19;5061726;28;989;-72
2022/03/05 06:38:44;;;;;;;;;;;;;;;22.53;22.50;97935.41;5097654;28;933;-71
2022/03/05 06:41:09;;;;;;;;;;;;;;;21.76;23.48;97934.47;5097697;28;1027;-71
2022/03/05 06:43:35;;;;;;;;;;;;;;;22.02;22.92;97938.16;5097858;28;909;-72
2022/03/05 06:46:01;;;;;;;;;;;;;;;21.94;23.03;97935.97;5097748;28;984;-72
2022/03/05 06:48:26;;;;;;;;;;;;;;;22.35;22.61;97933.13;5097709;28;1012;-71
2022/03/05 06:50:51;;;;;;;;;;;;;;;22.50;22.21;97929.88;5044607;28;943;-71
2022/03/05 06:53:17;;;;;;;;;;;;;;;22.76;21.94;97939.97;5096987;28;1910;-71
2022/03/05 06:55:43;;;;;;;;;;;;;;;22.48;22.33;97946.53;5097299;28;976;-71
2022/03/05 06:58:08;;;;;;;;;;;;;;;21.84;22.95;97944.31;5097546;28;949;-72
2022/03/05 07:00:34;;;;;;;;;;;;;;;22.55;22.42;97946.31;5097378;28;955;-72
2022/03/05 07:02:59;;;;;;;;;;;;;;;22.56;21.89;97948.69;5097250;28;876;-72
2022/03/05 07:05:25;;;;;;;;;;;;;;;22.54;22.38;97944.72;5061329;28;1110;-72
2022/03/05 07:07:50;;;;;;;;;;;;;;;22.54;22.25;97945.53;5097017;28;935;-72
2022/03/05 07:10:16;;;;;;;;;;;;;;;22.11;22.86;97946.00;5001514;28;1089;-72
2022/03/05 07:12:41;;;;;;;;;;;;;;;22.24;22.51;97937.56;5033975;28;1981;-72
2022/03/05 07:15:07;;;;;;;;;;;;;;;22.36;22.69;97946.06;5034325;28;1057;-72
2022/03/05 07:17:32;;;;;;;;;;;;;;;22.36;22.42;97948.91;5034551;28;991;-72
2022/03/05 07:19:58;;;;;;;;;;;;;;;22.20;22.77;97954.66;4994278;28;1138;-72
2022/03/05 07:22:23;;;;;;;;;;;;;;;21.91;23.05;97948.19;4994884;28;983;-72
2022/03/05 07:24:49;;;;;;;;;;;;;;;21.95;23.02;97951.72;4994474;28;1073;-72
2022/03/05 07:27:15;;;;;;;;;;;;;;;22.39;22.47;97954.94;4994875;28;984;-72
2022/03/05 07:29:41;;;;;;;;;;;;;;;22.18;22.77;97960.00;4994772;28;1021;-72
2022/03/05 07:32:07;;;;;;;;;;;;;;;22.62;22.33;97951.75;4994569;28;1365;-72
2022/03/05 07:34:32;;;;;;;;;;;;;;;22.59;22.31;97952.69;4978251;28;1906;-72
2022/03/05 07:36:58;;;;;;;;;;;;;;;21.84;23.29;97961.31;4994316;28;954;-72
2022/03/05 07:39:24;;;;;;;;;;;;;;;22.18;22.81;97962.03;4994593;28;987;-72
2022/03/05 07:41:49;;;;;;;;;;;;;;;22.36;22.39;97965.91;5003710;28;993;-72
2022/03/05 07:44:17;;;;;;;;;;;;;;;22.41;22.40;97972.25;4994733;28;1163;-72
2022/03/05 07:46:43;;;;;;;;;;;;;;;22.72;21.93;97964.81;4994341;28;1012;-72
2022/03/05 07:49:08;;;;;;;;;;;;;;;22.42;22.59;97965.34;4994465;28;1013;-71
2022/03/05 07:51:34;;;;;;;;;;;;;;;22.04;22.80;97957.53;4994230;28;1090;-72
2022/03/05 07:53:59;;;;;;;;;;;;;;;21.95;23.08;97960.22;4977989;28;1972;-72
2022/03/05 07:56:25;;;;;;;;;;;;;;;22.20;22.78;97971.66;4976377;28;983;-72
2022/03/05 07:58:50;;;;;;;;;;;;;;;22.38;22.62;97970.31;4994261;28;1035;-72
2022/03/05 08:01:15;;;;;;;;;;;;;;;22.11;23.01;97974.34;4994239;28;1136;-72
2022/03/05 08:03:41;;;;;;;;;;;;;;;22.28;22.48;97978.72;4993864;28;978;-72
2022/03/05 08:06:06;;;;;;;;;;;;;;;22.75;22.15;97972.41;4999222;28;1286;-72
2022/03/05 08:08:32;;;;;;;;;;;;;;;22.81;22.13;97981.94;4994073;28;953;-72
2022/03/05 08:10:57;;;;;;;;;;;;;;;22.47;22.58;97976.13;4996633;28;1108;-72
2022/03/05 08:13:23;;;;;;;;;;;;;;;22.01;22.81;97975.41;4964980;28;1993;-72
2022/03/05 08:15:48;;;;;;;;;;;;;;;21.90;23.05;97980.59;4980008;28;1210;-72
2022/03/05 08:18:14;;;;;;;;;;;;;;;22.42;22.50;97982.34;4984459;28;1317;-72
2022/03/05 08:20:39;;;;;;;;;;;;;;;22.07;22.78;97973.63;4984071;28;1280;-72
2022/03/05 08:23:05;;;;;;;;;;;;;;;22.51;22.48;97974.78;4982852;28;1201;-72
2022/03/05 08:25:30;;;;;;;;;;;;;;;22.39;22.31;97986.09;4968972;28;1214;-72
2022/03/05 08:27:56;;;;;;;;;;;;;;;22.38;22.32;97987.31;4972015;28;1088;-73
2022/03/05 08:30:21;;;;;;;;;;;;;;;22.17;22.58;97983.09;4977157;28;1103;-73
2022/03/05 08:32:47;;;;;;;;;;;;;;;22.25;22.63;97984.47;4960104;28;1910;-73
2022/03/05 08:35:12;;;;;;;;;;;;;;;22.05;22.79;97981.78;5013481;28;1075;-73
2022/03/05 08:37:38;;;;;;;;;;;;;;;22.58;22.18;97979.41;4998018;28;1087;-73
2022/03/05 08:40:04;;;;;;;;;;;;;;;22.61;22.18;97985.00;4999798;28;1285;-72
2022/03/05 08:42:30;;;;;;;;;;;;;;;22.74;22.00;97975.69;4978341;28;1353;-73
2022/03/05 08:44:55;;;;;;;;;;;;;;;22.46;22.55;97981.00;5055136;28;1284;-73
2022/03/05 08:47:21;;;;;;;;;;;;;;;22.63;22.40;97979.66;5028143;28;1040;-73
2022/03/05 08:49:46;;;;;;;;;;;;;;;21.92;22.86;97989.47;5058796;28;1369;-73
2022/03/05 08:52:12;;;;;;;;;;;;;;;22.47;22.24;97984.63;5067257;28;1502;-73
2022/03/05 08:54:37;;;;;;;;;;;;;;;22.23;22.91;97982.09;5062428;28;2111;-73
2022/03/05 08:57:03;;;;;;;;;;;;;;;22.27;22.72;97985.59;5072461;28;1350;-73
2022/03/05 08:59:28;;;;;;;;;;;;;;;22.65;22.37;97993.41;5072820;28;947;-73
2022/03/05 09:01:54;;;;;;;;;;;;;;;22.76;22.06;97985.34;5039311;28;1069;-73
2022/03/05 09:04:19;;;;;;;;;;;;;;;22.31;22.60;97989.13;5073005;28;1013;-73
2022/03/05 09:06:45;;;;;;;;;;;;;;;22.38;22.33;97993.00;5032871;28;982;-73
2022/03/05 09:09:10;;;;;;;;;;;;;;;22.52;22.30;97986.91;5032774;28;944;-73
2022/03/05 09:11:37;;;;;;;;;;;;;;;22.61;22.10;97989.88;5033085;28;1016;-73
2022/03/05 09:14:06;;;;;;;;;;;;;;;22.91;21.89;97993.44;4993319;28;1910;-73
2022/03/05 09:16:31;;;;;;;;;;;;;;;22.63;22.27;97998.72;4995920;28;1073;-73
2022/03/05 09:18:57;;;;;;;;;;;;;;;22.21;22.52;98001.59;4977481;28;1056;-73
2022/03/05 09:21:22;;;;;;;;;;;;;;;22.12;22.59;97992.94;4977731;28;980;-73
2022/03/05 09:23:48;;;;;;;;;;;;;;;22.46;22.49;98000.06;4977498;28;1030;-73
2022/03/05 09:26:16;;;;;;;;;;;;;;;22.16;22.52;97999.31;4961210;28;936;-73
2022/03/05 09:28:42;;;;;;;;;;;;;;;22.49;22.23;98004.84;4977538;28;966;-73
2022/03/05 09:31:07;;;;;;;;;;;;;;;22.31;22.29;98006.16;4977291;28;1228;-73
2022/03/05 09:33:33;;;;;;;;;;;;;;;22.39;22.39;98005.94;4977237;28;1898;-73
2022/03/05 09:35:59;;;;;;;;;;;;;;;22.18;22.86;98004.53;4977364;28;1033;-73
2022/03/05 09:38:25;;;;;;;;;;;;;;;22.19;22.82;98009.75;5007710;28;1032;-73
2022/03/05 09:40:50;;;;;;;;;;;;;;;22.69;21.90;98008.28;5016190;28;1008;-73
2022/03/05 09:43:17;;;;;;;;;;;;;;;22.15;22.58;98009.06;5016277;28;960;-73
2022/03/05 09:45:43;;;;;;;;;;;;;;;22.32;22.49;98012.59;5031934;28;1134;-73
2022/03/05 09:48:08;;;;;;;;;;;;;;;22.30;22.71;98013.06;5019524;28;1001;-73
2022/03/05 09:50:34;;;;;;;;;;;;;;;22.32;22.53;98007.72;5036097;28;918;-73
2022/03/05 09:52:59;;;;;;;;;;;;;;;22.66;22.24;98009.16;5035951;28;1972;-73
2022/03/05 09:55:25;;;;;;;;;;;;;;;22.48;22.09;98006.06;5042354;28;957;-73
2022/03/05 09:57:51;;;;;;;;;;;;;;;22.53;22.45;98005.50;5098357;28;913;-73
2022/03/05 10:00:16;;;;;;;;;;;;;;;22.46;22.35;98003.69;5098188;28;893;-73
2022/03/05 10:02:41;;;;;;;;;;;;;;;22.80;21.94;98002.25;5098326;28;971;-73
2022/03/05 10:05:19;;;;;;;;;;;;;;;22.50;22.17;98012.88;5080313;28;1039;-73
2022/03/05 10:08:00;;;;;;;;;;;;;;;22.54;22.14;98013.56;5098359;28;1017;-73
2022/03/05 10:10:26;;;;;;;;;;;;;;;22.38;22.50;98010.00;5080191;28;916;-73
2022/03/05 10:12:52;;;;;;;;;;;;;;;22.38;22.32;98010.00;5098339;28;1985;-73
2022/03/05 10:15:21;;;;;;;;;;;;;;;22.79;21.91;98001.44;5054134;28;2061;-74
2022/03/05 10:17:56;;;;;;;;;;;;;;;22.63;22.23;97988.16;5055533;28;942;-73
2022/03/05 10:20:31;;;;;;;;;;;;;;;22.40;22.66;97996.19;5072261;28;911;-73
2022/03/05 10:22:57;;;;;;;;;;;;;;;22.58;22.19;97993.59;5055521;28;957;-73
2022/03/05 10:25:31;;;;;;;;;;;;;;;22.35;22.56;97995.50;5071631;28;946;-73
2022/03/05 10:28:06;;;;;;;;;;;;;;;22.56;22.27;97993.28;5054669;28;971;-73
2022/03/05 10:30:51;;;;;;;;;;;;;;;22.56;22.27;97993.28;5055172;28;949;-73
2022/03/05 10:33:28;;;;;;;;;;;;;;;22.34;22.73;97993.13;5054519;28;1969;-73
2022/03/05 10:35:54;;;;;;;;;;;;;;;22.24;22.69;97988.56;5071597;28;1020;-73
2022/03/05 10:38:19;;;;;;;;;;;;;;;22.05;22.65;97981.78;5071640;28;942;-74
2022/03/05 10:40:51;;;;;;;;;;;;;;;22.57;22.44;97989.19;5038038;28;1378;-73
2022/03/05 10:43:17;;;;;;;;;;;;;;;22.60;22.13;97993.97;5038201;28;1020;-73
2022/03/05 10:45:51;;;;;;;;;;;;;;;22.51;22.30;97986.13;5049639;28;1137;-73
2022/03/05 10:48:20;;;;;;;;;;;;;;;22.24;22.76;97989.34;5034946;28;1049;-73
2022/03/05 10:50:46;;;;;;;;;;;;;;;22.36;22.31;97980.06;5018438;28;1133;-73
2022/03/05 10:53:11;;;;;;;;;;;;;;;22.53;22.35;97988.50;5034754;28;1971;-73
2022/03/05 10:55:36;;;;;;;;;;;;;;;22.40;22.37;97987.69;5034594;28;1053;-73
2022/03/05 10:58:17;;;;;;;;;;;;;;;22.31;22.51;97983.47;5014821;28;991;-73
2022/03/05 11:00:42;;;;;;;;;;;;;;;22.64;22.25;97971.97;5014810;28;1002;-73
2022/03/05 11:03:08;;;;;;;;;;;;;;;22.60;22.14;97971.28;5014846;28;1029;-73
2022/03/05 11:05:33;;;;;;;;;;;;;;;22.40;22.19;97984.84;5014598;28;933;-73
2022/03/05 11:07:59;;;;;;;;;;;;;;;22.35;22.44;97987.00;5014783;28;1022;-73
2022/03/05 11:10:29;;;;;;;;;;;;;;;22.98;21.97;97984.69;4975544;28;1026;-73
2022/03/05 11:12:56;;;;;;;;;;;;;;;22.24;22.77;97986.53;4975054;28;1903;-73
2022/03/05 11:15:22;;;;;;;;;;;;;;;22.21;22.95;97978.91;4975303;28;946;-73
2022/03/05 11:17:47;;;;;;;;;;;;;;;22.34;22.41;97982.56;4959107;28;2632;-73
2022/03/05 11:20:13;;;;;;;;;;;;;;;22.59;22.17;97983.88;4975548;28;1036;-73
2022/03/05 11:22:39;;;;;;;;;;;;;;;22.61;22.30;97984.19;4975506;28;1003;-73
2022/03/05 11:25:04;;;;;;;;;;;;;;;23.10;21.41;97981.03;4959599;28;970;-73
2022/03/05 11:27:30;;;;;;;;;;;;;;;22.63;22.16;97981.69;4959317;28;1215;-73
2022/03/05 11:29:59;;;;;;;;;;;;;;;22.54;22.08;97984.44;5009811;28;1037;-73
2022/03/05 11:32:28;;;;;;;;;;;;;;;22.58;22.22;97980.22;5013888;28;1073;-73
2022/03/05 11:34:55;;;;;;;;;;;;;;;22.63;22.33;97988.16;5013945;28;1906;-73
2022/03/05 11:37:24;;;;;;;;;;;;;;;22.55;21.96;97980.34;5014022;28;1191;-73
2022/03/05 11:39:49;;;;;;;;;;;;;;;22.93;21.65;97988.09;5013623;28;1125;-74
2022/03/05 11:42:34;;;;;;;;;;;;;;;22.94;21.67;97975.50;5030927;28;969;-73
2022/03/05 11:45:01;;;;;;;;;;;;;;;23.01;21.64;97975.28;5074601;28;967;-73
2022/03/05 11:47:31;;;;;;;;;;;;;;;22.83;21.75;97979.44;5058555;28;1009;-73
2022/03/05 11:49:59;;;;;;;;;;;;;;;22.97;21.70;97980.28;5076405;28;899;-73
2022/03/05 11:52:43;;;;;;;;;;;;;;;22.47;22.51;97982.59;5075651;28;1164;-73
2022/03/05 11:55:12;;;;;;;;;;;;;;;22.22;23.04;97991.84;5076010;28;1905;-73
2022/03/05 11:57:37;;;;;;;;;;;;;;;22.49;22.41;97982.94;5075592;28;857;-73
2022/03/05 12:00:03;;;;;;;;;;;;;;;22.22;22.27;97935.16;5076118;28;967;-73
2022/03/05 12:02:44;;;;;;;;;;;;;;;22.25;22.62;97990.94;5043011;28;941;-73
2022/03/05 12:05:09;;;;;;;;;;;;;;;22.34;22.45;97990.28;5076356;28;884;-73
2022/03/05 12:07:41;;;;;;;;;;;;;;;22.70;22.03;97981.50;5102106;28;1471;-73
2022/03/05 12:10:13;;;;;;;;;;;;;;;22.84;22.14;97986.69;5106211;28;1169;-74
2022/03/05 12:12:59;;;;;;;;;;;;;;;22.17;22.57;97994.41;5085376;28;1166;-74
2022/03/05 12:15:25;;;;;;;;;;;;;;;22.58;22.02;97990.75;5103969;28;1446;-73
2022/03/05 12:17:50;;;;;;;;;;;;;;;22.75;21.94;98000.78;5104596;28;1216;-73
2022/03/05 12:20:20;;;;;;;;;;;;;;;22.09;23.08;98002.31;5043555;28;1332;-74
2022/03/05 12:22:50;;;;;;;;;;;;;;;22.30;22.22;98004.56;5043415;28;1238;-71
2022/03/05 12:25:17;;;;;;;;;;;;;;;22.58;22.11;98013.44;5039768;28;1277;-71
2022/03/05 12:27:46;;;;;;;;;;;;;;;22.74;22.12;98007.72;5041507;28;1229;-72
2022/03/05 12:30:12;;;;;;;;;;;;;;;22.50;22.32;98006.41;5042569;28;1201;-72
2022/03/05 12:32:41;;;;;;;;;;;;;;;22.56;22.15;98005.41;5042205;28;1170;-72
2022/03/05 12:35:07;;;;;;;;;;;;;;;22.50;22.41;98017.75;5041013;28;1910;-72
2022/03/05 12:37:32;;;;;;;;;;;;;;;22.17;22.65;98017.09;5040986;28;1205;-72
2022/03/05 12:39:58;;;;;;;;;;;;;;;22.65;21.95;98013.25;5024977;28;1166;-72
2022/03/05 12:42:26;;;;;;;;;;;;;;;22.55;22.37;98014.38;5042734;28;1238;-72
2022/03/05 12:44:54;;;;;;;;;;;;;;;22.29;22.75;98013.53;5035440;28;1257;-72
2022/03/05 12:47:20;;;;;;;;;;;;;;;22.66;21.99;98008.38;5033162;28;908;-72
2022/03/05 12:49:45;;;;;;;;;;;;;;;22.77;22.05;98014.50;5034783;28;1020;-72
2022/03/05 12:52:16;;;;;;;;;;;;;;;22.79;21.88;98009.94;5037134;28;1002;-72
2022/03/05 12:54:45;;;;;;;;;;;;;;;22.91;21.90;98013.31;5036762;28;1985;-72
2022/03/05 12:57:10;;;;;;;;;;;;;;;22.71;22.10;98011.44;5059989;28;1374;-72
2022/03/05 12:59:39;;;;;;;;;;;;;;;22.51;22.38;98020.13;5108582;28;1208;-72